Time;durP1;ratioP1;P1;durP2;ratioP2;P2;SDS_P1;SDS_P2;PMS_P1;PMS_P2;Temp;Humidity;BMP_temperature;BMP_pressure;BME280_temperature;BME280_humidity;BME280_pressure;Samples;Min_cycle;Max_cycle;Signal;HPM_P1;HPM_P2
2024/01/30 00:02:15;;;;;;;8.60;5.33;;;0.60;99.90;;;1.43;100.00;99377.75;5032773;28;20983;-82
2024/01/30 00:04:44;;;;;;;8.23;5.57;;;0.70;99.90;;;1.49;100.00;99379.94;5030202;28;20462;-81
2024/01/30 00:07:12;;;;;;;11.03;5.80;;;0.70;99.90;;;1.50;100.00;99376.44;5031204;28;20475;-82
2024/01/30 00:09:41;;;;;;;8.03;5.60;;;0.70;99.90;;;1.44;100.00;99381.16;5033480;28;20487;-82
2024/01/30 00:12:10;;;;;;;10.80;5.80;;;0.60;99.90;;;1.36;100.00;99378.25;5032316;28;20499;-82
2024/01/30 00:14:43;;;;;;;9.97;6.40;;;0.60;99.90;;;1.44;100.00;99382.00;5030667;28;20879;-83
2024/01/30 00:17:11;;;;;;;11.80;6.40;;;0.70;99.90;;;1.43;100.00;99384.66;5030449;28;20985;-82
2024/01/30 00:19:40;;;;;;;13.03;6.17;;;0.60;99.90;;;1.42;100.00;99377.88;5029847;28;20459;-82
2024/01/30 00:22:09;;;;;;;10.60;6.10;;;0.60;99.90;;;1.45;100.00;99381.09;5031794;28;21015;-82
2024/01/30 00:24:37;;;;;;;15.33;5.70;;;0.70;99.90;;;1.42;100.00;99370.94;5031562;28;20480;-83
2024/01/30 00:27:06;;;;;;;15.30;6.33;;;0.60;99.90;;;1.35;100.00;99377.44;5029173;28;20526;-82
2024/01/30 00:29:35;;;;;;;9.10;5.60;;;0.60;99.90;;;1.43;100.00;99372.59;5031714;28;20530;-82
2024/01/30 00:32:06;;;;;;;10.03;6.30;;;0.70;99.90;;;1.42;100.00;99378.69;5030733;28;20485;-82
2024/01/30 00:34:34;;;;;;;8.37;5.50;;;0.60;99.90;;;1.39;100.00;99373.72;5031947;28;20461;-82
2024/01/30 00:37:03;;;;;;;14.50;5.63;;;0.70;99.90;;;1.40;100.00;99365.06;5033712;28;21011;-82
2024/01/30 00:39:32;;;;;;;10.97;6.00;;;0.60;99.90;;;1.40;100.00;99374.56;5030138;28;20499;-82
2024/01/30 00:42:00;;;;;;;12.43;5.20;;;0.60;99.90;;;1.38;100.00;99364.34;5031117;28;20471;-83
2024/01/30 00:44:29;;;;;;;8.80;5.40;;;0.60;99.90;;;1.36;100.00;99368.75;5027711;28;20508;-82
2024/01/30 00:46:58;;;;;;;8.50;5.60;;;0.60;99.90;;;1.37;100.00;99367.03;5031002;28;20598;-83
2024/01/30 00:49:28;;;;;;;9.87;5.83;;;0.60;99.90;;;1.26;100.00;99378.00;5030159;28;20478;-82
2024/01/30 00:51:57;;;;;;;10.33;5.90;;;0.50;99.90;;;1.34;100.00;99377.53;5029429;28;20497;-83
2024/01/30 00:54:26;;;;;;;9.17;5.80;;;0.60;99.90;;;1.23;100.00;99374.78;4976791;28;1569097;-82
2024/01/30 00:56:54;;;;;;;8.43;5.80;;;0.40;99.90;;;1.23;100.00;99370.47;5034265;28;20207;-83
2024/01/30 00:59:23;;;;;;;10.60;5.90;;;0.40;99.90;;;1.27;100.00;99374.50;5034886;28;20470;-82
2024/01/30 01:01:51;;;;;;;9.40;6.60;;;0.50;99.90;;;1.30;100.00;99369.16;5032989;28;20461;-82
2024/01/30 01:04:21;;;;;;;10.17;5.03;;;0.50;99.90;;;1.23;100.00;99372.22;5031115;28;20473;-82
2024/01/30 01:06:51;;;;;;;13.70;6.40;;;0.50;99.90;;;1.27;100.00;99369.34;5032904;28;20465;-82
2024/01/30 01:09:20;;;;;;;7.77;5.23;;;0.50;99.90;;;1.32;100.00;99369.88;5032366;28;20808;-82
2024/01/30 01:11:48;;;;;;;12.00;5.63;;;0.50;99.90;;;1.33;100.00;99368.13;5032707;28;20458;-83
2024/01/30 01:14:17;;;;;;;9.47;5.83;;;0.50;99.90;;;1.31;100.00;99370.81;5031485;28;20975;-83
2024/01/30 01:16:46;;;;;;;7.50;5.13;;;0.50;99.90;;;1.33;100.00;99368.97;5030035;28;20465;-82
2024/01/30 01:19:14;;;;;;;13.53;5.90;;;0.50;99.90;;;1.30;100.00;99364.00;5031659;28;20480;-82
2024/01/30 01:21:43;;;;;;;10.43;5.43;;;0.50;99.90;;;1.27;100.00;99364.19;5032332;28;20598;-83
2024/01/30 01:24:14;;;;;;;9.53;5.80;;;0.50;99.90;;;1.27;100.00;99358.22;5032806;28;20522;-82
2024/01/30 01:39:02;;;;;;;8.83;5.33;;;0.30;99.90;;;1.18;100.00;99362.19;5032456;28;20549;-82
2024/01/30 01:41:33;;;;;;;7.37;5.47;;;0.40;99.90;;;1.22;100.00;99365.38;5033038;28;20467;-82
2024/01/30 01:44:02;;;;;;;7.17;5.47;;;0.40;99.90;;;1.18;100.00;99366.53;5031228;28;20831;-83
2024/01/30 01:46:35;;;;;;;8.50;5.20;;;0.40;99.90;;;1.14;100.00;99365.06;5028329;28;20487;-82
2024/01/30 01:49:06;;;;;;;6.80;4.80;;;0.30;99.90;;;1.18;100.00;99363.97;5029402;28;20521;-82
2024/01/30 01:51:38;;;;;;;11.87;5.90;;;0.40;99.90;;;1.13;100.00;99365.97;5033303;28;20507;-82
2024/01/30 01:54:08;;;;;;;8.90;5.50;;;0.30;99.90;;;1.15;100.00;99370.09;5030598;28;20514;-82
2024/01/30 01:56:38;;;;;;;7.87;4.83;;;0.40;99.90;;;1.17;100.00;99363.13;5035072;28;20506;-83
2024/01/30 01:59:09;;;;;;;10.50;5.00;;;0.40;99.90;;;1.20;100.00;99373.22;5032075;28;20459;-83
2024/01/30 02:01:40;;;;;;;10.57;6.13;;;0.40;99.90;;;1.14;100.00;99362.50;5033658;28;20477;-82
2024/01/30 02:04:10;;;;;;;9.63;4.83;;;0.40;99.90;;;0.97;100.00;99366.91;5036060;28;20477;-82
2024/01/30 02:06:39;;;;;;;8.53;4.97;;;0.20;99.90;;;1.02;100.00;99364.06;5031760;28;20466;-83
2024/01/30 02:09:09;;;;;;;8.57;5.83;;;0.20;99.90;;;1.05;100.00;99358.72;5034257;28;20468;-83
2024/01/30 02:11:39;;;;;;;11.30;5.43;;;0.30;99.90;;;1.12;100.00;99367.72;5033522;28;20924;-82
2024/01/30 02:14:07;;;;;;;9.23;5.17;;;0.40;99.90;;;1.09;100.00;99364.50;5034232;28;20501;-82
2024/01/30 02:16:36;;;;;;;5.47;4.63;;;0.30;99.90;;;1.01;100.00;99360.66;5033205;28;20984;-82
2024/01/30 02:19:05;;;;;;;7.80;4.80;;;0.20;99.90;;;1.01;100.00;99367.56;5033397;28;21065;-82
2024/01/30 02:21:35;;;;;;;8.47;4.90;;;0.20;99.90;;;0.97;100.00;99366.13;5036213;28;20473;-82
2024/01/30 02:24:05;;;;;;;8.70;4.97;;;0.20;99.90;;;0.92;100.00;99352.69;5034477;28;20457;-82
2024/01/30 02:26:34;;;;;;;8.37;4.70;;;0.10;99.90;;;0.92;100.00;99357.81;5035193;28;20475;-82
2024/01/30 02:29:03;;;;;;;6.60;4.50;;;0.10;99.90;;;0.90;100.00;99359.69;5034799;28;20467;-82
2024/01/30 02:31:31;;;;;;;10.10;5.47;;;0.10;99.90;;;0.95;100.00;99355.06;5036320;28;20461;-83
2024/01/30 02:34:00;;;;;;;9.83;5.27;;;0.20;99.90;;;0.92;100.00;99363.81;5034587;28;20500;-82
2024/01/30 02:36:28;;;;;;;8.43;3.90;;;0.10;99.90;;;0.90;100.00;99360.47;5034831;28;21061;-82
2024/01/30 02:38:58;;;;;;;7.40;4.80;;;0.10;99.90;;;0.82;100.00;99356.75;5033565;28;20467;-82
2024/01/30 02:41:27;;;;;;;11.30;5.07;;;0.00;99.90;;;0.94;100.00;99366.28;5033683;28;20469;-83
2024/01/30 02:43:55;;;;;;;6.87;4.47;;;0.30;99.90;;;0.95;100.00;99360.22;5035099;28;20465;-83
2024/01/30 02:46:24;;;;;;;9.80;4.90;;;0.20;99.90;;;0.87;100.00;99359.84;5036500;28;20473;-83
2024/01/30 02:48:53;;;;;;;6.07;4.57;;;0.10;99.90;;;0.88;100.00;99354.63;5034358;28;20745;-82
2024/01/30 02:51:21;;;;;;;6.10;4.20;;;0.10;99.90;;;0.91;100.00;99353.59;5032885;28;21003;-82
2024/01/30 02:53:50;;;;;;;5.83;4.57;;;0.10;99.90;;;0.89;100.00;99352.88;5030083;28;20561;-83
2024/01/30 02:56:20;;;;;;;6.70;4.57;;;0.10;99.90;;;0.90;100.00;99357.09;5034417;28;20834;-82
2024/01/30 02:58:48;;;;;;;7.60;4.87;;;0.10;99.90;;;0.87;100.00;99352.13;5034555;28;20474;-82
2024/01/30 03:01:17;;;;;;;8.33;4.87;;;0.10;99.90;;;0.81;100.00;99352.50;5034876;28;20832;-83
2024/01/30 03:03:46;;;;;;;7.40;4.47;;;0.00;99.90;;;0.83;100.00;99353.25;5031845;28;20999;-83
2024/01/30 03:06:17;;;;;;;5.87;4.57;;;0.00;99.90;;;0.84;100.00;99349.75;5033844;28;20452;-82
2024/01/30 03:08:45;;;;;;;7.27;4.27;;;0.10;99.90;;;0.80;100.00;99353.44;5034707;28;20496;-83
2024/01/30 03:11:14;;;;;;;7.13;4.50;;;0.00;99.90;;;0.76;100.00;99350.22;5033316;28;20807;-82
2024/01/30 03:13:44;;;;;;;8.63;4.80;;;0.00;99.90;;;0.79;100.00;99354.34;5036289;28;20504;-83
2024/01/30 03:16:12;;;;;;;8.83;5.30;;;0.00;99.90;;;0.82;100.00;99347.28;5031373;28;21016;-82
2024/01/30 03:18:41;;;;;;;5.67;4.90;;;0.00;99.90;;;0.81;100.00;99357.66;5030114;28;20547;-82
2024/01/30 03:21:10;;;;;;;10.03;4.33;;;0.00;99.90;;;0.78;100.00;99352.69;5033113;28;20457;-83
2024/01/30 03:23:38;;;;;;;9.97;4.13;;;0.00;99.90;;;0.85;100.00;99359.13;5033917;28;20469;-82
2024/01/30 03:26:07;;;;;;;5.80;4.20;;;0.10;99.90;;;0.84;100.00;99352.31;5031414;28;20471;-82
2024/01/30 03:28:35;;;;;;;5.43;4.37;;;0.10;99.90;;;0.87;100.00;99352.94;5032807;28;20505;-82
2024/01/30 03:31:05;;;;;;;8.97;5.07;;;0.10;99.90;;;0.82;100.00;99356.75;5033696;28;20483;-82
2024/01/30 03:33:34;;;;;;;5.73;4.43;;;0.00;99.90;;;0.80;100.00;99356.03;5030175;28;20553;-82
2024/01/30 03:36:06;;;;;;;6.97;4.20;;;0.00;99.90;;;0.77;100.00;99351.03;5032091;28;20870;-82
2024/01/30 03:38:34;;;;;;;9.87;4.07;;;0.00;99.90;;;0.75;100.00;99352.88;5032246;28;20457;-82
2024/01/30 03:41:03;;;;;;;6.90;3.80;;;0.00;99.90;;;0.70;100.00;99352.31;5033067;28;20465;-82
2024/01/30 03:43:32;;;;;;;5.60;4.33;;;-0.10;99.90;;;0.72;100.00;99358.22;5032889;28;20472;-82
2024/01/30 03:46:02;;;;;;;7.60;4.40;;;-0.10;99.90;;;0.71;100.00;99343.69;5034134;28;21005;-82
2024/01/30 03:48:32;;;;;;;4.30;3.83;;;-0.10;99.90;;;0.70;100.00;99353.16;5034145;28;20504;-82
2024/01/30 03:51:01;;;;;;;6.37;3.73;;;-0.10;99.90;;;0.68;100.00;99347.28;5033799;28;20842;-83
2024/01/30 03:53:29;;;;;;;8.80;4.10;;;-0.10;99.90;;;0.61;100.00;99352.88;5032074;28;20487;-82
2024/01/30 03:55:58;;;;;;;12.03;5.10;;;-0.20;99.90;;;0.62;100.00;99351.97;5032075;28;20467;-83
2024/01/30 03:58:25;;;;;;;7.87;5.17;;;-0.10;99.90;;;0.64;100.00;99344.97;5032508;28;20464;-82
2024/01/30 04:00:54;;;;;;;6.30;4.13;;;-0.10;99.90;;;0.61;100.00;99343.44;5031926;28;20462;-82
2024/01/30 04:03:22;;;;;;;10.93;4.10;;;-0.20;99.90;;;0.56;100.00;99345.44;5034472;28;20834;-83
2024/01/30 04:05:53;;;;;;;4.57;3.90;;;-0.20;99.90;;;0.50;100.00;99344.06;5033067;28;20478;-82
2024/01/30 04:08:22;;;;;;;6.93;4.63;;;-0.30;99.90;;;0.63;100.00;99335.59;5033862;28;20468;-83
2024/01/30 04:10:50;;;;;;;13.30;4.50;;;-0.10;99.90;;;0.64;100.00;99334.69;5031864;28;20458;-83
2024/01/30 04:13:19;;;;;;;4.67;4.17;;;-0.10;99.90;;;0.61;100.00;99338.28;5027658;28;20517;-83
2024/01/30 04:15:47;;;;;;;5.50;3.80;;;-0.10;99.90;;;0.55;100.00;99333.50;5031525;28;20465;-83
2024/01/30 04:18:16;;;;;;;9.13;4.33;;;-0.20;99.90;;;0.54;100.00;99347.28;5031983;28;20762;-81
2024/01/30 04:20:46;;;;;;;9.37;4.97;;;-0.30;99.90;;;0.66;100.00;99338.00;5031907;28;20544;-81
2024/01/30 04:23:16;;;;;;;7.10;4.50;;;-0.10;99.90;;;0.69;100.00;99348.94;5032479;28;20472;-81
2024/01/30 04:25:44;;;;;;;4.97;4.20;;;-0.10;99.90;;;0.68;100.00;99346.44;5032361;28;20475;-81
2024/01/30 04:28:13;;;;;;;12.97;4.37;;;-0.10;99.90;;;0.71;100.00;99347.09;5032892;28;20471;-81
2024/01/30 04:30:41;;;;;;;8.80;4.03;;;0.00;99.90;;;0.73;100.00;99341.88;5032991;28;20476;-81
2024/01/30 04:33:11;;;;;;;7.70;4.37;;;0.00;99.90;;;0.77;100.00;99349.28;5032215;28;20468;-81
2024/01/30 04:35:40;;;;;;;6.53;4.70;;;0.10;99.90;;;0.77;100.00;99348.47;5029037;28;20992;-81
2024/01/30 04:38:08;;;;;;;7.77;4.67;;;0.00;99.90;;;0.76;100.00;99345.09;5033084;28;20909;-81
2024/01/30 04:40:38;;;;;;;7.30;4.33;;;0.00;99.90;;;0.80;100.00;99343.16;5033189;28;20473;-81
2024/01/30 04:43:07;;;;;;;5.53;4.50;;;0.10;99.90;;;0.79;100.00;99346.63;5032860;28;20463;-81
2024/01/30 04:45:35;;;;;;;6.80;4.60;;;0.10;99.90;;;0.81;100.00;99355.06;5032660;28;20478;-81
2024/01/30 04:48:04;;;;;;;8.50;4.30;;;0.00;99.90;;;0.79;100.00;99351.78;5031246;28;20464;-81
2024/01/30 04:50:33;;;;;;;4.83;4.33;;;0.00;99.90;;;0.76;100.00;99351.97;5032026;28;20469;-81
2024/01/30 04:53:01;;;;;;;6.10;4.20;;;0.00;99.90;;;0.78;100.00;99353.53;5032250;28;20515;-82
2024/01/30 04:55:30;;;;;;;7.53;4.50;;;0.10;99.90;;;0.79;100.00;99354.34;5032636;28;20499;-81
2024/01/30 04:58:00;;;;;;;8.60;4.50;;;0.00;99.90;;;0.78;100.00;99355.28;5032181;28;20472;-81
2024/01/30 05:00:28;;;;;;;5.87;3.80;;;0.10;99.90;;;0.78;100.00;99350.13;5031283;28;21045;-81
2024/01/30 05:02:57;;;;;;;8.33;4.63;;;0.00;99.90;;;0.76;100.00;99357.94;5031820;28;20469;-81
2024/01/30 05:05:25;;;;;;;7.93;4.93;;;0.00;99.90;;;0.76;100.00;99357.13;5033044;28;21056;-81
2024/01/30 05:07:54;;;;;;;4.47;3.83;;;0.00;99.90;;;0.78;100.00;99357.84;5029866;28;20977;-81
2024/01/30 05:10:22;;;;;;;8.53;5.00;;;0.00;99.90;;;0.80;100.00;99358.59;5032895;28;20466;-81
2024/01/30 05:12:51;;;;;;;8.47;5.23;;;0.10;99.90;;;0.76;100.00;99351.97;5030980;28;20472;-81
2024/01/30 05:15:22;;;;;;;14.73;4.67;;;0.00;99.90;;;0.76;100.00;99351.97;5031496;28;20551;-81
2024/01/30 05:17:50;;;;;;;5.03;3.80;;;0.10;99.90;;;0.74;100.00;99351.22;5031271;28;20470;-81
2024/01/30 05:20:21;;;;;;;5.77;4.53;;;0.00;99.90;;;0.72;100.00;99359.06;5030043;28;20901;-81
2024/01/30 05:22:49;;;;;;;10.57;4.90;;;0.00;99.90;;;0.68;100.00;99352.44;5032511;28;20487;-81
2024/01/30 05:25:18;;;;;;;6.50;4.10;;;-0.10;99.90;;;0.74;100.00;99358.94;5032856;28;20465;-81
2024/01/30 05:27:46;;;;;;;8.60;4.77;;;0.00;99.90;;;0.74;100.00;99354.63;5031809;28;20493;-81
2024/01/30 05:30:15;;;;;;;6.73;4.07;;;0.00;99.90;;;0.73;100.00;99357.31;5034718;28;20814;-81
2024/01/30 05:32:45;;;;;;;9.20;4.50;;;0.00;99.90;;;0.75;100.00;99358.88;5033903;28;20870;-81
2024/01/30 05:35:14;;;;;;;7.33;4.30;;;0.00;99.90;;;0.70;100.00;99358.31;5034263;28;21046;-81
2024/01/30 05:37:43;;;;;;;9.80;4.60;;;0.00;99.90;;;0.70;100.00;99354.91;5032525;28;20457;-81
2024/01/30 05:40:12;;;;;;;7.60;4.63;;;0.00;99.90;;;0.72;100.00;99355.66;5033781;28;21031;-81
2024/01/30 05:42:41;;;;;;;6.50;4.73;;;0.00;99.90;;;0.70;100.00;99353.16;5034755;28;20459;-81
2024/01/30 05:45:10;;;;;;;7.53;3.73;;;0.00;99.90;;;0.73;100.00;99352.97;5035825;28;20464;-81
2024/01/30 05:47:38;;;;;;;7.53;4.30;;;0.00;99.90;;;0.75;100.00;99355.47;5033944;28;20473;-81
2024/01/30 05:50:11;;;;;;;5.00;3.70;;;0.00;99.90;;;0.70;100.00;99347.19;5036806;28;20489;-81
2024/01/30 05:52:39;;;;;;;10.07;4.40;;;-0.10;99.90;;;0.70;100.00;99349.75;5037411;28;20484;-81
2024/01/30 05:55:09;;;;;;;9.63;4.47;;;-0.10;99.90;;;0.70;100.00;99352.31;5034417;28;20649;-81
2024/01/30 05:57:38;;;;;;;7.47;3.97;;;-0.10;99.90;;;0.68;100.00;99349.88;5035374;28;20506;-81
2024/01/30 06:00:08;;;;;;;5.97;4.07;;;-0.10;99.90;;;0.68;100.00;99352.44;5035028;28;21074;-81
2024/01/30 06:02:37;;;;;;;6.27;4.33;;;-0.10;99.90;;;0.70;100.00;99352.31;5036094;28;20471;-81
2024/01/30 06:05:08;;;;;;;7.30;4.33;;;0.00;99.90;;;0.67;100.00;99347.38;5034029;28;20495;-80
2024/01/30 06:07:36;;;;;;;4.67;4.10;;;-0.10;99.90;;;0.69;100.00;99350.69;5032489;28;20515;-81
2024/01/30 06:10:08;;;;;;;6.00;4.00;;;-0.10;99.90;;;0.67;100.00;99360.22;5036036;28;20473;-80
2024/01/30 06:12:37;;;;;;;8.53;4.10;;;-0.10;99.90;;;0.61;100.00;99358.03;5032404;28;20596;-81
2024/01/30 06:15:07;;;;;;;8.97;4.80;;;-0.10;99.90;;;0.58;100.00;99353.06;5035663;28;20977;-81
2024/01/30 06:17:36;;;;;;;8.13;4.43;;;-0.20;99.90;;;0.64;100.00;99347.56;5033019;28;20480;-81
2024/01/30 06:20:08;;;;;;;6.60;4.37;;;-0.10;99.90;;;0.65;100.00;99349.22;5036267;28;20457;-81
2024/01/30 06:22:38;;;;;;;8.10;4.33;;;-0.10;99.90;;;0.63;100.00;99351.03;5034946;28;20472;-81
2024/01/30 06:25:08;;;;;;;6.10;4.10;;;-0.10;99.90;;;0.61;100.00;99353.72;5032564;28;20966;-81
2024/01/30 06:27:36;;;;;;;8.97;4.60;;;-0.10;99.90;;;0.61;100.00;99350.31;5033439;28;20490;-81
2024/01/30 06:30:07;;;;;;;8.43;4.20;;;-0.10;99.90;;;0.62;100.00;99344.25;5036968;28;20465;-81
2024/01/30 06:32:37;;;;;;;8.50;4.07;;;-0.10;99.90;;;0.60;100.00;99352.06;5032302;28;20552;-81
2024/01/30 06:35:07;;;;;;;4.30;3.57;;;-0.10;99.90;;;0.59;100.00;99354.75;5032782;28;20487;-81
2024/01/30 06:37:37;;;;;;;8.40;4.87;;;-0.20;99.90;;;0.59;100.00;99359.88;5035392;28;20766;-81
2024/01/30 06:40:08;;;;;;;5.63;4.57;;;-0.10;99.90;;;0.60;100.00;99358.94;5034582;28;20824;-81
2024/01/30 06:42:37;;;;;;;7.30;4.13;;;-0.20;99.90;;;0.56;100.00;99360.88;5034369;28;20472;-81
2024/01/30 06:45:06;;;;;;;8.13;3.90;;;-0.20;99.90;;;0.60;100.00;99364.09;5032605;28;20464;-81
2024/01/30 06:47:35;;;;;;;9.03;4.90;;;-0.20;99.90;;;0.59;100.00;99365.84;5031546;28;20463;-81
2024/01/30 06:50:03;;;;;;;11.00;4.77;;;-0.20;99.90;;;0.61;100.00;99371.75;5031294;28;20464;-80
2024/01/30 06:52:32;;;;;;;17.00;7.47;;;-0.10;99.90;;;0.59;100.00;99362.47;5029144;28;21028;-81
2024/01/30 06:55:02;;;;;;;7.00;4.10;;;-0.20;99.90;;;0.59;100.00;99365.03;5027461;28;20878;-82
2024/01/30 06:57:31;;;;;;;7.70;4.90;;;-0.10;99.90;;;0.62;100.00;99370.00;5033071;28;20456;-81
2024/01/30 07:00:00;;;;;;;6.83;4.57;;;-0.10;99.90;;;0.63;100.00;99361.34;5029110;28;20463;-82
2024/01/30 07:02:28;;;;;;;6.33;4.37;;;-0.10;99.90;;;0.64;100.00;99363.00;5027878;28;20476;-80
2024/01/30 07:04:57;;;;;;;6.53;4.17;;;-0.10;99.90;;;0.64;100.00;99358.69;5029945;28;21013;-81
2024/01/30 07:07:26;;;;;;;5.53;4.57;;;-0.10;99.90;;;0.63;100.00;99363.91;5032715;28;20472;-83
2024/01/30 07:09:56;;;;;;;6.77;4.20;;;-0.10;99.90;;;0.65;100.00;99364.66;5023417;28;20456;-82
2024/01/30 07:12:26;;;;;;;6.10;3.90;;;-0.10;99.90;;;0.66;100.00;99372.28;5029133;28;20478;-81
2024/01/30 07:14:56;;;;;;;6.70;4.30;;;-0.10;99.90;;;0.67;100.00;99373.09;5034188;28;20465;-81
2024/01/30 07:17:24;;;;;;;7.90;4.20;;;0.00;99.90;;;0.66;100.00;99371.47;5031878;28;20534;-82
2024/01/30 07:19:53;;;;;;;6.90;4.17;;;-0.10;99.90;;;0.66;100.00;99379.19;5034040;28;20466;-82
2024/01/30 07:22:22;;;;;;;10.87;4.33;;;-0.10;99.90;;;0.66;100.00;99374.03;5032948;28;20472;-81
2024/01/30 07:24:51;;;;;;;7.27;4.23;;;-0.10;99.90;;;0.70;100.00;99372.91;5031920;28;20471;-80
2024/01/30 07:27:21;;;;;;;6.77;4.53;;;-0.10;99.90;;;0.71;100.00;99359.13;5033680;28;20465;-81
2024/01/30 07:29:51;;;;;;;15.00;4.83;;;0.00;99.90;;;0.76;100.00;99362.28;5031892;28;20943;-82
2024/01/30 07:32:20;;;;;;;7.10;4.67;;;0.00;99.90;;;0.74;100.00;99372.66;5032597;28;20468;-80
2024/01/30 07:34:48;;;;;;;7.90;4.83;;;0.00;99.90;;;0.77;100.00;99377.59;5033339;28;20468;-81
2024/01/30 07:37:34;;;;;;;6.57;4.47;;;0.00;99.90;;;0.79;100.00;99378.34;5033842;28;20921;-76
2024/01/30 07:40:04;;;;;;;12.70;5.13;;;0.10;99.90;;;0.79;100.00;99383.50;5032711;28;20476;-82
2024/01/30 07:42:33;;;;;;;5.90;4.27;;;0.10;99.90;;;0.80;100.00;99395.44;5033298;28;20480;-81
2024/01/30 07:45:03;;;;;;;5.23;4.40;;;0.10;99.90;;;0.82;100.00;99382.47;5032501;28;21259;-81
2024/01/30 07:47:31;;;;;;;17.40;5.47;;;0.10;99.90;;;0.88;100.00;99382.94;5031226;28;20481;-81
2024/01/30 07:50:00;;;;;;;10.63;5.17;;;0.20;99.90;;;0.89;100.00;99389.75;5031805;28;20696;-81
2024/01/30 07:52:29;;;;;;;11.20;4.60;;;0.20;99.90;;;0.86;100.00;99394.25;5033669;28;21016;-81
2024/01/30 07:54:58;;;;;;;8.00;4.70;;;0.10;99.90;;;0.87;100.00;99395.88;5032096;28;21004;-81
2024/01/30 07:57:26;;;;;;;10.70;4.90;;;0.20;99.90;;;0.88;100.00;99397.56;5030536;28;20557;-81
2024/01/30 07:59:57;;;;;;;7.27;5.60;;;0.10;99.90;;;0.96;100.00;99387.63;5034363;28;20512;-81
2024/01/30 08:02:27;;;;;;;11.73;5.00;;;0.20;99.90;;;0.98;100.00;99394.31;5030565;28;21094;-81
2024/01/30 08:04:56;;;;;;;14.50;5.30;;;0.30;99.90;;;1.05;100.00;99387.03;5033301;28;20509;-81
2024/01/30 08:07:25;;;;;;;8.47;5.27;;;0.30;99.90;;;1.01;100.00;99383.00;5033952;28;20453;-81
2024/01/30 08:09:53;;;;;;;11.33;5.83;;;0.30;99.90;;;1.09;100.00;99391.09;5030127;28;20465;-81
2024/01/30 08:12:22;;;;;;;16.80;5.87;;;0.40;99.90;;;1.10;100.00;99392.75;5031884;28;20465;-82
2024/01/30 08:14:51;;;;;;;10.60;5.73;;;0.40;99.90;;;1.15;100.00;99390.72;5032208;28;20523;-82
2024/01/30 08:17:19;;;;;;;10.70;6.03;;;0.50;99.90;;;1.18;100.00;99398.25;5028419;28;20499;-76
2024/01/30 08:19:49;;;;;;;17.33;10.50;;;0.50;99.90;;;1.22;100.00;99397.13;5028874;28;20469;-81
2024/01/30 08:22:18;;;;;;;15.43;6.93;;;0.50;99.90;;;1.25;100.00;99404.66;5030224;28;20462;-81
2024/01/30 08:24:46;;;;;;;11.23;6.57;;;0.50;99.90;;;1.30;100.00;99399.25;5028982;28;20469;-80
2024/01/30 08:27:15;;;;;;;11.40;6.83;;;0.60;99.90;;;1.30;100.00;99397.50;5029295;28;20854;-80
2024/01/30 08:29:43;;;;;;;10.43;5.07;;;0.60;99.90;;;1.30;100.00;99399.25;5027222;28;20466;-80
2024/01/30 08:32:13;;;;;;;10.90;5.63;;;0.60;99.90;;;1.32;100.00;99392.25;5028778;28;20472;-80
2024/01/30 08:34:41;;;;;;;15.23;5.57;;;0.60;99.90;;;1.38;100.00;99389.28;5033583;28;20467;-81
2024/01/30 08:37:12;;;;;;;11.30;6.07;;;0.60;99.90;;;1.40;100.00;99393.41;5030867;28;20503;-80
2024/01/30 08:39:41;;;;;;;13.40;6.20;;;0.70;99.90;;;1.42;100.00;99401.06;5031738;28;20461;-79
2024/01/30 08:42:10;;;;;;;13.97;6.80;;;0.70;99.90;;;1.49;100.00;99405.72;5029986;28;20896;-81
2024/01/30 08:44:39;;;;;;;12.20;6.70;;;0.70;99.90;;;1.55;100.00;99393.38;5030172;28;20468;-79
2024/01/30 08:47:07;;;;;;;18.60;8.83;;;0.80;99.90;;;1.57;100.00;99394.94;5031521;28;20564;-81
2024/01/30 08:49:35;;;;;;;15.63;8.20;;;0.80;99.90;;;1.60;100.00;99396.50;5032483;28;20475;-81
2024/01/30 08:52:06;;;;;;;15.27;8.40;;;0.80;99.90;;;1.62;100.00;99394.66;5028089;28;21682;-81
2024/01/30 08:54:36;;;;;;;12.10;7.37;;;0.90;99.90;;;1.71;100.00;99394.03;5026573;28;20530;-80
2024/01/30 08:57:05;;;;;;;18.13;7.40;;;1.00;99.90;;;1.72;100.00;99390.56;5028809;28;20572;-80
2024/01/30 08:59:34;;;;;;;19.77;7.47;;;1.00;99.90;;;1.78;100.00;99395.31;5026739;28;20471;-81
2024/01/30 09:02:03;;;;;;;16.13;7.10;;;1.10;99.90;;;1.81;100.00;99382.22;5032855;28;20551;-80
2024/01/30 09:04:40;;;;;;;21.07;6.80;;;1.10;99.90;;;1.84;100.00;99389.78;5032314;28;20993;-80
2024/01/30 09:07:10;;;;;;;9.93;5.90;;;1.20;99.90;;;1.87;100.00;99394.72;5032427;28;20615;-81
2024/01/30 09:09:42;;;;;;;14.40;6.60;;;1.10;99.90;;;1.88;100.00;99397.19;5031255;28;20464;-80
2024/01/30 09:12:11;;;;;;;11.20;6.17;;;1.20;99.90;;;1.93;100.00;99399.47;5032965;28;20464;-80
2024/01/30 09:14:41;;;;;;;11.57;6.43;;;1.20;99.90;;;1.95;100.00;99395.03;5034676;28;21061;-78
2024/01/30 09:17:10;;;;;;;62.13;34.30;;;1.30;99.90;;;2.02;100.00;99398.88;5032205;28;20830;-80
2024/01/30 09:19:39;;;;;;;14.10;6.90;;;1.30;99.90;;;2.04;100.00;99389.31;5031131;28;20473;-80
2024/01/30 09:22:08;;;;;;;8.57;6.70;;;1.40;99.90;;;2.06;100.00;99395.19;5030769;28;20468;-81
2024/01/30 09:24:37;;;;;;;11.27;6.53;;;1.30;99.90;;;2.12;100.00;99399.94;5040683;28;20493;-80
2024/01/30 09:27:07;;;;;;;13.83;8.20;;;1.50;99.90;;;2.19;100.00;99397.75;5040089;28;20577;-82
2024/01/30 09:29:36;;;;;;;15.77;8.07;;;1.50;99.90;;;2.18;100.00;99399.53;5039153;28;20476;-82
2024/01/30 09:32:08;;;;;;;12.90;6.57;;;1.50;99.90;;;2.21;100.00;99398.50;5039226;28;20473;-82
2024/01/30 09:34:39;;;;;;;10.57;6.10;;;1.50;99.90;;;2.27;100.00;99398.09;5039638;28;20461;-83
2024/01/30 09:37:08;;;;;;;20.37;8.27;;;1.60;99.90;;;2.31;100.00;99402.13;5037818;28;20495;-83
2024/01/30 09:39:37;;;;;;;16.03;7.33;;;1.60;99.90;;;2.37;100.00;99399.97;5038255;28;20963;-83
2024/01/30 09:42:22;;;;;;;12.70;7.07;;;1.70;99.90;;;2.43;100.00;99409.06;5037880;28;20467;-83
2024/01/30 09:44:54;;;;;;;10.40;6.20;;;1.70;99.90;;;2.48;100.00;99404.41;5038194;28;20868;-83
2024/01/30 09:47:23;;;;;;;11.60;6.40;;;1.80;99.90;;;2.52;100.00;99414.44;5031312;28;20464;-80
2024/01/30 09:49:52;;;;;;;11.57;6.67;;;1.90;99.90;;;2.58;100.00;99409.78;5033423;28;20465;-79
2024/01/30 09:52:21;;;;;;;10.57;6.90;;;1.90;99.90;;;2.64;100.00;99414.56;5032250;28;20453;-79
2024/01/30 09:54:53;;;;;;;8.90;5.90;;;2.00;99.90;;;2.69;100.00;99407.31;5029969;28;20463;-80
2024/01/30 09:57:23;;;;;;;14.30;6.77;;;2.00;99.90;;;2.74;100.00;99420.75;5032338;28;20593;-80
2024/01/30 09:59:53;;;;;;;11.33;6.40;;;2.10;99.90;;;2.79;100.00;99424.66;5032382;28;21001;-79
2024/01/30 10:02:23;;;;;;;11.17;7.33;;;2.10;99.90;;;2.85;100.00;99420.81;5029414;28;20464;-79
2024/01/30 10:04:53;;;;;;;11.03;6.20;;;2.20;99.90;;;2.91;100.00;99425.59;5032014;28;21059;-80
2024/01/30 10:07:22;;;;;;;14.30;6.93;;;2.30;99.90;;;2.96;100.00;99418.34;5032191;28;20469;-80
2024/01/30 10:09:50;;;;;;;13.10;6.17;;;2.30;99.90;;;3.03;100.00;99428.16;5031277;28;20489;-80
2024/01/30 10:12:21;;;;;;;12.90;7.27;;;2.40;99.90;;;3.11;100.00;99419.88;5029603;28;20550;-79
2024/01/30 10:14:50;;;;;;;11.53;7.53;;;2.50;99.90;;;3.16;100.00;99417.78;5030279;28;20945;-79
2024/01/30 10:17:20;;;;;;;18.03;8.87;;;2.60;99.90;;;3.24;100.00;99409.50;5027598;28;20495;-79
2024/01/30 10:20:01;;;;;;;24.80;12.00;;;2.60;99.90;;;3.31;100.00;99410.72;5028613;28;20510;-79
2024/01/30 10:22:30;;;;;;;18.53;7.53;;;2.70;99.90;;;3.38;100.00;99411.94;5028409;28;20459;-79
2024/01/30 10:24:59;;;;;;;11.73;7.70;;;2.80;99.90;;;3.45;100.00;99420.91;5031345;28;20464;-79
2024/01/30 10:27:35;;;;;;;13.13;6.43;;;2.90;99.90;;;3.50;100.00;99404.16;5029855;28;20474;-79
2024/01/30 10:30:04;;;;;;;9.73;6.20;;;2.90;99.90;;;3.58;100.00;99411.34;5031197;28;20461;-80
2024/01/30 10:32:32;;;;;;;13.60;6.67;;;3.00;99.90;;;3.64;100.00;99408.34;5031335;28;20974;-79
2024/01/30 10:35:01;;;;;;;10.60;7.63;;;3.10;99.90;;;3.73;100.00;99409.44;5030748;28;20830;-80
2024/01/30 10:37:33;;;;;;;11.50;6.90;;;3.10;99.90;;;3.78;100.00;99399.59;5031395;28;20500;-79
2024/01/30 10:40:05;;;;;;;10.67;6.10;;;3.20;99.90;;;3.84;100.00;99399.16;5033051;28;20455;-79
2024/01/30 10:42:38;;;;;;;10.27;6.30;;;3.30;99.90;;;3.91;100.00;99401.19;5034223;28;20467;-79
2024/01/30 10:45:12;;;;;;;12.97;6.63;;;3.40;99.90;;;3.99;100.00;99401.44;5032356;28;20823;-79